sensor_id;sensor_type;location;lat;lon;timestamp;P1;durP1;ratioP1;P2;durP2;ratioP2
72125;SDS011;59999;51.676;22.650;2023-06-10T00:00:00;13.43;;;9.52;;
72125;SDS011;59999;51.676;22.650;2023-06-10T00:02:26;13.60;;;9.13;;
72125;SDS011;59999;51.676;22.650;2023-06-10T00:04:53;13.98;;;9.80;;
72125;SDS011;59999;51.676;22.650;2023-06-10T00:07:19;13.35;;;9.45;;
72125;SDS011;59999;51.676;22.650;2023-06-10T00:09:45;13.38;;;9.10;;
72125;SDS011;59999;51.676;22.650;2023-06-10T00:12:11;13.20;;;8.93;;
72125;SDS011;59999;51.676;22.650;2023-06-10T00:14:38;12.90;;;8.93;;
72125;SDS011;59999;51.676;22.650;2023-06-10T00:17:06;12.75;;;8.65;;
72125;SDS011;59999;51.676;22.650;2023-06-10T00:19:34;12.52;;;8.27;;
72125;SDS011;59999;51.676;22.650;2023-06-10T00:22:01;11.70;;;7.80;;
72125;SDS011;59999;51.676;22.650;2023-06-10T00:24:29;14.13;;;8.75;;
72125;SDS011;59999;51.676;22.650;2023-06-10T00:26:55;14.65;;;8.82;;
72125;SDS011;59999;51.676;22.650;2023-06-10T00:29:21;15.07;;;9.20;;
72125;SDS011;59999;51.676;22.650;2023-06-10T00:31:47;14.37;;;9.40;;
72125;SDS011;59999;51.676;22.650;2023-06-10T00:34:13;14.82;;;8.63;;
72125;SDS011;59999;51.676;22.650;2023-06-10T00:36:39;12.80;;;8.88;;
72125;SDS011;59999;51.676;22.650;2023-06-10T00:39:06;12.73;;;8.90;;
72125;SDS011;59999;51.676;22.650;2023-06-10T00:41:32;13.43;;;9.52;;
72125;SDS011;59999;51.676;22.650;2023-06-10T00:43:59;13.17;;;8.47;;
72125;SDS011;59999;51.676;22.650;2023-06-10T00:46:25;13.38;;;9.05;;
72125;SDS011;59999;51.676;22.650;2023-06-10T00:48:52;13.68;;;8.85;;
72125;SDS011;59999;51.676;22.650;2023-06-10T00:51:18;13.13;;;8.93;;
72125;SDS011;59999;51.676;22.650;2023-06-10T00:53:45;17.17;;;9.60;;
72125;SDS011;59999;51.676;22.650;2023-06-10T00:56:11;13.27;;;9.73;;
72125;SDS011;59999;51.676;22.650;2023-06-10T00:58:38;14.32;;;9.40;;
72125;SDS011;59999;51.676;22.650;2023-06-10T01:01:04;14.68;;;9.77;;
72125;SDS011;59999;51.676;22.650;2023-06-10T01:03:31;14.77;;;9.60;;
72125;SDS011;59999;51.676;22.650;2023-06-10T01:06:01;16.27;;;10.13;;
72125;SDS011;59999;51.676;22.650;2023-06-10T01:11:19;16.25;;;10.15;;
72125;SDS011;59999;51.676;22.650;2023-06-10T01:13:49;14.20;;;9.77;;
72125;SDS011;59999;51.676;22.650;2023-06-10T01:16:17;14.95;;;9.20;;
72125;SDS011;59999;51.676;22.650;2023-06-10T01:18:45;13.33;;;9.13;;
72125;SDS011;59999;51.676;22.650;2023-06-10T01:21:19;19.95;;;9.85;;
72125;SDS011;59999;51.676;22.650;2023-06-10T01:23:51;15.20;;;9.65;;
72125;SDS011;59999;51.676;22.650;2023-06-10T01:26:18;14.52;;;10.15;;
72125;SDS011;59999;51.676;22.650;2023-06-10T01:34:02;15.00;;;8.95;;
72125;SDS011;59999;51.676;22.650;2023-06-10T01:36:32;15.38;;;9.23;;
72125;SDS011;59999;51.676;22.650;2023-06-10T01:39:00;14.73;;;9.63;;
72125;SDS011;59999;51.676;22.650;2023-06-10T01:41:29;15.13;;;9.17;;
72125;SDS011;59999;51.676;22.650;2023-06-10T01:43:57;18.00;;;9.52;;
72125;SDS011;59999;51.676;22.650;2023-06-10T01:46:22;18.60;;;11.55;;
72125;SDS011;59999;51.676;22.650;2023-06-10T01:48:49;17.48;;;10.55;;
72125;SDS011;59999;51.676;22.650;2023-06-10T01:51:14;17.38;;;11.00;;
72125;SDS011;59999;51.676;22.650;2023-06-10T01:53:41;18.53;;;11.90;;
72125;SDS011;59999;51.676;22.650;2023-06-10T01:56:06;19.50;;;12.23;;
72125;SDS011;59999;51.676;22.650;2023-06-10T01:58:33;18.83;;;11.40;;
72125;SDS011;59999;51.676;22.650;2023-06-10T02:00:58;17.00;;;11.50;;
72125;SDS011;59999;51.676;22.650;2023-06-10T02:03:25;16.27;;;10.23;;
72125;SDS011;59999;51.676;22.650;2023-06-10T02:05:50;14.10;;;9.05;;
72125;SDS011;59999;51.676;22.650;2023-06-10T02:08:16;15.23;;;9.70;;
72125;SDS011;59999;51.676;22.650;2023-06-10T02:10:42;14.93;;;9.63;;
72125;SDS011;59999;51.676;22.650;2023-06-10T02:13:08;14.25;;;9.15;;
72125;SDS011;59999;51.676;22.650;2023-06-10T02:15:34;18.17;;;10.45;;
72125;SDS011;59999;51.676;22.650;2023-06-10T02:18:00;15.67;;;10.60;;
72125;SDS011;59999;51.676;22.650;2023-06-10T02:20:26;15.00;;;10.30;;
72125;SDS011;59999;51.676;22.650;2023-06-10T02:22:53;15.93;;;10.25;;
72125;SDS011;59999;51.676;22.650;2023-06-10T02:25:18;15.83;;;9.63;;
72125;SDS011;59999;51.676;22.650;2023-06-10T02:27:45;18.30;;;9.37;;
72125;SDS011;59999;51.676;22.650;2023-06-10T02:30:11;14.70;;;10.02;;
72125;SDS011;59999;51.676;22.650;2023-06-10T02:32:39;15.13;;;9.93;;
72125;SDS011;59999;51.676;22.650;2023-06-10T02:35:06;15.02;;;9.95;;
72125;SDS011;59999;51.676;22.650;2023-06-10T02:37:32;16.27;;;9.80;;
72125;SDS011;59999;51.676;22.650;2023-06-10T02:39:58;15.43;;;9.50;;
72125;SDS011;59999;51.676;22.650;2023-06-10T02:42:24;14.30;;;9.75;;
72125;SDS011;59999;51.676;22.650;2023-06-10T02:44:50;16.13;;;10.10;;
72125;SDS011;59999;51.676;22.650;2023-06-10T02:47:16;14.55;;;9.40;;
72125;SDS011;59999;51.676;22.650;2023-06-10T02:49:42;14.93;;;9.52;;
72125;SDS011;59999;51.676;22.650;2023-06-10T02:52:08;15.35;;;9.20;;
72125;SDS011;59999;51.676;22.650;2023-06-10T02:54:34;12.77;;;7.97;;
72125;SDS011;59999;51.676;22.650;2023-06-10T02:57:01;12.77;;;8.25;;
72125;SDS011;59999;51.676;22.650;2023-06-10T02:59:27;14.45;;;8.90;;
72125;SDS011;59999;51.676;22.650;2023-06-10T03:01:54;15.15;;;9.60;;
72125;SDS011;59999;51.676;22.650;2023-06-10T03:04:20;14.67;;;9.37;;
72125;SDS011;59999;51.676;22.650;2023-06-10T03:06:46;17.17;;;10.20;;
72125;SDS011;59999;51.676;22.650;2023-06-10T03:09:12;15.02;;;8.95;;
72125;SDS011;59999;51.676;22.650;2023-06-10T03:11:39;15.48;;;9.10;;
72125;SDS011;59999;51.676;22.650;2023-06-10T03:14:04;13.57;;;8.40;;
72125;SDS011;59999;51.676;22.650;2023-06-10T03:16:31;12.55;;;8.48;;
72125;SDS011;59999;51.676;22.650;2023-06-10T03:18:56;12.45;;;7.88;;
72125;SDS011;59999;51.676;22.650;2023-06-10T03:21:22;12.83;;;8.00;;
72125;SDS011;59999;51.676;22.650;2023-06-10T03:23:48;13.68;;;7.40;;
72125;SDS011;59999;51.676;22.650;2023-06-10T03:26:14;11.60;;;7.38;;
72125;SDS011;59999;51.676;22.650;2023-06-10T03:28:41;13.35;;;7.65;;
72125;SDS011;59999;51.676;22.650;2023-06-10T03:31:07;12.67;;;7.57;;
72125;SDS011;59999;51.676;22.650;2023-06-10T03:33:33;12.45;;;7.57;;
72125;SDS011;59999;51.676;22.650;2023-06-10T03:35:59;10.77;;;6.72;;
72125;SDS011;59999;51.676;22.650;2023-06-10T03:38:25;12.90;;;7.47;;
72125;SDS011;59999;51.676;22.650;2023-06-10T03:40:51;12.82;;;7.43;;
72125;SDS011;59999;51.676;22.650;2023-06-10T03:43:17;11.48;;;6.57;;
72125;SDS011;59999;51.676;22.650;2023-06-10T03:45:43;12.75;;;7.03;;
72125;SDS011;59999;51.676;22.650;2023-06-10T03:48:08;12.20;;;6.57;;
72125;SDS011;59999;51.676;22.650;2023-06-10T03:50:35;11.38;;;6.72;;
72125;SDS011;59999;51.676;22.650;2023-06-10T03:53:01;11.60;;;6.82;;
72125;SDS011;59999;51.676;22.650;2023-06-10T03:55:28;10.23;;;6.13;;
72125;SDS011;59999;51.676;22.650;2023-06-10T03:57:53;12.38;;;6.63;;
72125;SDS011;59999;51.676;22.650;2023-06-10T04:00:20;13.77;;;7.00;;
72125;SDS011;59999;51.676;22.650;2023-06-10T04:02:47;12.95;;;6.57;;
72125;SDS011;59999;51.676;22.650;2023-06-10T04:05:18;12.53;;;7.00;;
72125;SDS011;59999;51.676;22.650;2023-06-10T04:07:47;10.88;;;6.50;;
72125;SDS011;59999;51.676;22.650;2023-06-10T04:10:14;14.18;;;6.63;;
72125;SDS011;59999;51.676;22.650;2023-06-10T04:12:40;13.27;;;6.95;;
72125;SDS011;59999;51.676;22.650;2023-06-10T04:15:07;10.95;;;6.45;;
72125;SDS011;59999;51.676;22.650;2023-06-10T04:17:34;12.93;;;7.00;;
72125;SDS011;59999;51.676;22.650;2023-06-10T04:20:00;10.77;;;6.30;;
72125;SDS011;59999;51.676;22.650;2023-06-10T04:22:29;11.73;;;6.63;;
72125;SDS011;59999;51.676;22.650;2023-06-10T04:24:54;11.43;;;6.40;;
72125;SDS011;59999;51.676;22.650;2023-06-10T04:27:20;10.80;;;6.80;;
72125;SDS011;59999;51.676;22.650;2023-06-10T04:29:46;12.30;;;7.03;;
72125;SDS011;59999;51.676;22.650;2023-06-10T04:32:12;11.52;;;6.70;;
72125;SDS011;59999;51.676;22.650;2023-06-10T04:34:38;13.90;;;7.50;;
72125;SDS011;59999;51.676;22.650;2023-06-10T04:37:04;9.90;;;6.32;;
72125;SDS011;59999;51.676;22.650;2023-06-10T04:39:30;13.15;;;7.18;;
72125;SDS011;59999;51.676;22.650;2023-06-10T04:41:57;11.73;;;6.97;;
72125;SDS011;59999;51.676;22.650;2023-06-10T04:44:23;11.03;;;6.73;;
72125;SDS011;59999;51.676;22.650;2023-06-10T04:46:49;11.40;;;6.85;;
72125;SDS011;59999;51.676;22.650;2023-06-10T04:49:15;10.93;;;6.97;;
72125;SDS011;59999;51.676;22.650;2023-06-10T04:51:41;10.82;;;6.75;;
72125;SDS011;59999;51.676;22.650;2023-06-10T04:54:07;11.77;;;6.43;;
72125;SDS011;59999;51.676;22.650;2023-06-10T04:56:33;10.43;;;6.57;;
72125;SDS011;59999;51.676;22.650;2023-06-10T04:58:59;10.77;;;6.60;;
72125;SDS011;59999;51.676;22.650;2023-06-10T05:01:25;11.47;;;6.83;;
72125;SDS011;59999;51.676;22.650;2023-06-10T05:03:53;11.00;;;6.55;;
72125;SDS011;59999;51.676;22.650;2023-06-10T05:06:19;11.82;;;7.40;;
72125;SDS011;59999;51.676;22.650;2023-06-10T05:08:45;13.70;;;7.13;;
72125;SDS011;59999;51.676;22.650;2023-06-10T05:11:11;10.73;;;6.90;;
72125;SDS011;59999;51.676;22.650;2023-06-10T05:13:36;11.07;;;7.40;;
72125;SDS011;59999;51.676;22.650;2023-06-10T05:16:03;15.10;;;7.90;;
72125;SDS011;59999;51.676;22.650;2023-06-10T05:18:29;12.38;;;7.43;;
72125;SDS011;59999;51.676;22.650;2023-06-10T05:20:55;14.50;;;7.25;;
72125;SDS011;59999;51.676;22.650;2023-06-10T05:23:21;11.27;;;7.20;;
72125;SDS011;59999;51.676;22.650;2023-06-10T05:25:47;28.25;;;16.77;;
72125;SDS011;59999;51.676;22.650;2023-06-10T05:28:13;24.08;;;16.13;;
72125;SDS011;59999;51.676;22.650;2023-06-10T05:30:39;14.43;;;9.27;;
72125;SDS011;59999;51.676;22.650;2023-06-10T05:33:05;15.05;;;9.77;;
72125;SDS011;59999;51.676;22.650;2023-06-10T05:35:31;14.65;;;9.18;;
72125;SDS011;59999;51.676;22.650;2023-06-10T05:37:57;21.48;;;9.27;;
72125;SDS011;59999;51.676;22.650;2023-06-10T05:40:23;15.10;;;9.03;;
72125;SDS011;59999;51.676;22.650;2023-06-10T05:42:49;14.10;;;8.10;;
72125;SDS011;59999;51.676;22.650;2023-06-10T05:45:15;12.02;;;8.82;;
72125;SDS011;59999;51.676;22.650;2023-06-10T05:47:41;13.10;;;8.67;;
72125;SDS011;59999;51.676;22.650;2023-06-10T05:50:07;12.75;;;8.05;;
72125;SDS011;59999;51.676;22.650;2023-06-10T05:52:37;11.52;;;8.52;;
72125;SDS011;59999;51.676;22.650;2023-06-10T05:55:06;12.68;;;7.03;;
72125;SDS011;59999;51.676;22.650;2023-06-10T05:57:32;10.55;;;6.93;;
72125;SDS011;59999;51.676;22.650;2023-06-10T05:59:58;10.93;;;7.47;;
72125;SDS011;59999;51.676;22.650;2023-06-10T06:02:24;9.85;;;6.20;;
72125;SDS011;59999;51.676;22.650;2023-06-10T06:04:50;10.38;;;6.35;;
72125;SDS011;59999;51.676;22.650;2023-06-10T06:07:16;9.20;;;6.27;;
72125;SDS011;59999;51.676;22.650;2023-06-10T06:09:42;9.80;;;5.78;;
72125;SDS011;59999;51.676;22.650;2023-06-10T06:12:08;9.65;;;6.18;;
72125;SDS011;59999;51.676;22.650;2023-06-10T06:14:37;10.95;;;5.70;;
72125;SDS011;59999;51.676;22.650;2023-06-10T06:17:07;9.53;;;5.97;;
72125;SDS011;59999;51.676;22.650;2023-06-10T06:19:33;9.38;;;6.03;;
72125;SDS011;59999;51.676;22.650;2023-06-10T06:21:59;8.50;;;5.20;;
72125;SDS011;59999;51.676;22.650;2023-06-10T06:24:25;9.65;;;5.72;;
72125;SDS011;59999;51.676;22.650;2023-06-10T06:26:51;10.13;;;6.03;;
72125;SDS011;59999;51.676;22.650;2023-06-10T06:29:17;9.85;;;6.43;;
72125;SDS011;59999;51.676;22.650;2023-06-10T06:31:43;10.10;;;6.50;;
72125;SDS011;59999;51.676;22.650;2023-06-10T06:34:09;9.80;;;5.30;;
72125;SDS011;59999;51.676;22.650;2023-06-10T06:36:35;9.57;;;5.70;;
72125;SDS011;59999;51.676;22.650;2023-06-10T06:39:01;9.35;;;5.70;;
72125;SDS011;59999;51.676;22.650;2023-06-10T06:41:27;12.90;;;6.15;;
72125;SDS011;59999;51.676;22.650;2023-06-10T06:43:54;10.23;;;5.90;;
72125;SDS011;59999;51.676;22.650;2023-06-10T06:46:20;9.27;;;5.50;;
72125;SDS011;59999;51.676;22.650;2023-06-10T06:48:48;9.77;;;6.30;;
72125;SDS011;59999;51.676;22.650;2023-06-10T06:51:14;9.00;;;5.78;;
72125;SDS011;59999;51.676;22.650;2023-06-10T06:53:40;10.95;;;6.68;;
72125;SDS011;59999;51.676;22.650;2023-06-10T06:56:10;9.93;;;6.50;;
72125;SDS011;59999;51.676;22.650;2023-06-10T06:58:36;10.37;;;5.90;;
72125;SDS011;59999;51.676;22.650;2023-06-10T07:01:03;9.93;;;6.50;;
72125;SDS011;59999;51.676;22.650;2023-06-10T07:03:29;9.65;;;6.68;;
72125;SDS011;59999;51.676;22.650;2023-06-10T07:05:55;10.73;;;6.47;;
72125;SDS011;59999;51.676;22.650;2023-06-10T07:08:21;10.05;;;6.95;;
72125;SDS011;59999;51.676;22.650;2023-06-10T07:10:47;10.60;;;7.33;;
72125;SDS011;59999;51.676;22.650;2023-06-10T07:13:14;10.50;;;6.65;;
72125;SDS011;59999;51.676;22.650;2023-06-10T07:15:40;11.60;;;7.22;;
72125;SDS011;59999;51.676;22.650;2023-06-10T07:18:06;12.60;;;7.45;;
72125;SDS011;59999;51.676;22.650;2023-06-10T07:20:32;12.37;;;7.70;;
72125;SDS011;59999;51.676;22.650;2023-06-10T07:22:58;11.35;;;7.70;;
72125;SDS011;59999;51.676;22.650;2023-06-10T07:25:24;12.63;;;8.48;;
72125;SDS011;59999;51.676;22.650;2023-06-10T07:27:50;12.63;;;7.93;;
72125;SDS011;59999;51.676;22.650;2023-06-10T07:30:16;13.50;;;8.82;;
72125;SDS011;59999;51.676;22.650;2023-06-10T07:32:42;14.88;;;9.10;;
72125;SDS011;59999;51.676;22.650;2023-06-10T07:35:09;12.75;;;9.23;;
72125;SDS011;59999;51.676;22.650;2023-06-10T07:37:37;11.10;;;7.73;;
72125;SDS011;59999;51.676;22.650;2023-06-10T07:40:04;14.65;;;9.18;;
72125;SDS011;59999;51.676;22.650;2023-06-10T07:42:34;14.63;;;9.20;;
72125;SDS011;59999;51.676;22.650;2023-06-10T07:45:01;12.52;;;9.02;;
72125;SDS011;59999;51.676;22.650;2023-06-10T07:47:29;13.30;;;10.30;;
72125;SDS011;59999;51.676;22.650;2023-06-10T07:49:55;13.40;;;9.73;;
72125;SDS011;59999;51.676;22.650;2023-06-10T07:52:21;11.70;;;8.68;;
72125;SDS011;59999;51.676;22.650;2023-06-10T07:54:47;12.73;;;9.05;;
72125;SDS011;59999;51.676;22.650;2023-06-10T07:57:13;12.45;;;8.93;;
72125;SDS011;59999;51.676;22.650;2023-06-10T07:59:39;12.23;;;8.57;;
72125;SDS011;59999;51.676;22.650;2023-06-10T08:02:05;14.18;;;8.93;;
72125;SDS011;59999;51.676;22.650;2023-06-10T08:07:16;12.57;;;8.88;;
72125;SDS011;59999;51.676;22.650;2023-06-10T08:09:43;12.67;;;8.73;;
72125;SDS011;59999;51.676;22.650;2023-06-10T08:12:09;13.77;;;9.30;;
72125;SDS011;59999;51.676;22.650;2023-06-10T08:14:35;13.20;;;9.27;;
72125;SDS011;59999;51.676;22.650;2023-06-10T08:17:03;14.27;;;9.82;;
72125;SDS011;59999;51.676;22.650;2023-06-10T08:19:31;12.00;;;8.80;;
72125;SDS011;59999;51.676;22.650;2023-06-10T08:21:57;13.37;;;8.53;;
72125;SDS011;59999;51.676;22.650;2023-06-10T08:24:23;12.52;;;9.02;;
72125;SDS011;59999;51.676;22.650;2023-06-10T08:26:49;16.92;;;9.77;;
72125;SDS011;59999;51.676;22.650;2023-06-10T08:29:15;13.40;;;9.10;;
72125;SDS011;59999;51.676;22.650;2023-06-10T08:31:42;13.45;;;9.27;;
72125;SDS011;59999;51.676;22.650;2023-06-10T08:34:08;13.93;;;9.50;;
72125;SDS011;59999;51.676;22.650;2023-06-10T08:36:34;15.55;;;9.40;;
72125;SDS011;59999;51.676;22.650;2023-06-10T08:39:01;13.50;;;9.52;;
72125;SDS011;59999;51.676;22.650;2023-06-10T08:41:28;13.43;;;8.80;;
72125;SDS011;59999;51.676;22.650;2023-06-10T08:46:47;13.60;;;9.07;;
72125;SDS011;59999;51.676;22.650;2023-06-10T08:49:16;13.60;;;9.05;;
72125;SDS011;59999;51.676;22.650;2023-06-10T08:51:47;12.93;;;9.50;;
72125;SDS011;59999;51.676;22.650;2023-06-10T08:54:17;15.80;;;9.23;;
72125;SDS011;59999;51.676;22.650;2023-06-10T08:56:46;14.38;;;9.55;;
72125;SDS011;59999;51.676;22.650;2023-06-10T08:59:15;14.63;;;9.38;;
72125;SDS011;59999;51.676;22.650;2023-06-10T09:01:42;14.65;;;10.73;;
72125;SDS011;59999;51.676;22.650;2023-06-10T09:04:09;14.27;;;10.57;;
72125;SDS011;59999;51.676;22.650;2023-06-10T09:06:36;15.00;;;9.80;;
72125;SDS011;59999;51.676;22.650;2023-06-10T09:09:05;17.75;;;10.60;;
72125;SDS011;59999;51.676;22.650;2023-06-10T09:11:32;18.02;;;10.60;;
72125;SDS011;59999;51.676;22.650;2023-06-10T09:13:58;20.20;;;10.85;;
72125;SDS011;59999;51.676;22.650;2023-06-10T09:16:25;19.65;;;10.85;;
72125;SDS011;59999;51.676;22.650;2023-06-10T09:18:51;15.40;;;10.43;;
72125;SDS011;59999;51.676;22.650;2023-06-10T09:21:23;17.23;;;10.52;;
72125;SDS011;59999;51.676;22.650;2023-06-10T09:23:50;14.23;;;10.02;;
72125;SDS011;59999;51.676;22.650;2023-06-10T09:26:17;15.30;;;10.85;;
72125;SDS011;59999;51.676;22.650;2023-06-10T09:28:49;18.60;;;10.48;;
72125;SDS011;59999;51.676;22.650;2023-06-10T09:31:15;16.87;;;11.40;;
72125;SDS011;59999;51.676;22.650;2023-06-10T09:33:44;19.95;;;10.90;;
72125;SDS011;59999;51.676;22.650;2023-06-10T09:36:11;15.77;;;11.35;;
72125;SDS011;59999;51.676;22.650;2023-06-10T09:38:37;20.25;;;10.95;;
72125;SDS011;59999;51.676;22.650;2023-06-10T09:41:03;18.80;;;12.00;;
72125;SDS011;59999;51.676;22.650;2023-06-10T09:46:19;14.55;;;10.15;;
72125;SDS011;59999;51.676;22.650;2023-06-10T09:48:46;14.43;;;9.38;;
72125;SDS011;59999;51.676;22.650;2023-06-10T09:51:13;16.38;;;9.90;;
72125;SDS011;59999;51.676;22.650;2023-06-10T09:53:40;12.38;;;8.40;;
72125;SDS011;59999;51.676;22.650;2023-06-10T09:56:06;15.60;;;9.10;;
72125;SDS011;59999;51.676;22.650;2023-06-10T09:58:36;12.48;;;9.05;;
72125;SDS011;59999;51.676;22.650;2023-06-10T10:01:11;13.77;;;9.40;;
72125;SDS011;59999;51.676;22.650;2023-06-10T10:03:47;17.23;;;10.45;;
72125;SDS011;59999;51.676;22.650;2023-06-10T10:06:15;18.53;;;11.40;;
72125;SDS011;59999;51.676;22.650;2023-06-10T10:08:43;19.98;;;12.63;;
72125;SDS011;59999;51.676;22.650;2023-06-10T10:11:09;19.15;;;12.43;;
72125;SDS011;59999;51.676;22.650;2023-06-10T10:13:36;19.60;;;12.55;;
72125;SDS011;59999;51.676;22.650;2023-06-10T10:16:09;19.85;;;13.02;;
72125;SDS011;59999;51.676;22.650;2023-06-10T10:18:38;18.27;;;12.60;;
72125;SDS011;59999;51.676;22.650;2023-06-10T10:21:10;19.88;;;13.52;;
72125;SDS011;59999;51.676;22.650;2023-06-10T10:24:20;19.15;;;12.80;;
72125;SDS011;59999;51.676;22.650;2023-06-10T10:26:37;19.80;;;12.75;;
72125;SDS011;59999;51.676;22.650;2023-06-10T10:31:49;19.03;;;12.40;;
72125;SDS011;59999;51.676;22.650;2023-06-10T10:34:18;19.02;;;12.55;;
72125;SDS011;59999;51.676;22.650;2023-06-10T10:36:50;21.27;;;13.20;;
72125;SDS011;59999;51.676;22.650;2023-06-10T10:39:16;20.20;;;12.93;;
72125;SDS011;59999;51.676;22.650;2023-06-10T10:41:43;19.42;;;12.68;;
72125;SDS011;59999;51.676;22.650;2023-06-10T10:44:10;22.03;;;13.10;;
72125;SDS011;59999;51.676;22.650;2023-06-10T10:46:43;22.38;;;13.30;;
72125;SDS011;59999;51.676;22.650;2023-06-10T10:49:13;20.38;;;13.00;;
72125;SDS011;59999;51.676;22.650;2023-06-10T10:52:01;20.23;;;12.93;;
72125;SDS011;59999;51.676;22.650;2023-06-10T10:54:34;19.25;;;12.73;;
72125;SDS011;59999;51.676;22.650;2023-06-10T10:57:11;18.90;;;12.50;;
72125;SDS011;59999;51.676;22.650;2023-06-10T10:59:52;20.55;;;12.13;;
72125;SDS011;59999;51.676;22.650;2023-06-10T11:05:08;21.08;;;12.48;;
72125;SDS011;59999;51.676;22.650;2023-06-10T11:07:36;18.33;;;12.10;;
72125;SDS011;59999;51.676;22.650;2023-06-10T11:10:05;15.93;;;10.93;;
72125;SDS011;59999;51.676;22.650;2023-06-10T11:12:47;17.45;;;11.30;;
72125;SDS011;59999;51.676;22.650;2023-06-10T11:15:23;16.92;;;10.65;;
72125;SDS011;59999;51.676;22.650;2023-06-10T11:20:51;14.65;;;9.85;;
72125;SDS011;59999;51.676;22.650;2023-06-10T11:31:28;12.73;;;8.35;;
72125;SDS011;59999;51.676;22.650;2023-06-10T11:33:57;15.35;;;9.35;;
72125;SDS011;59999;51.676;22.650;2023-06-10T11:36:25;13.67;;;8.63;;
72125;SDS011;59999;51.676;22.650;2023-06-10T11:38:56;12.30;;;8.90;;
72125;SDS011;59999;51.676;22.650;2023-06-10T11:41:23;11.50;;;8.10;;
72125;SDS011;59999;51.676;22.650;2023-06-10T11:43:51;12.15;;;7.63;;
72125;SDS011;59999;51.676;22.650;2023-06-10T11:46:18;10.48;;;7.40;;
72125;SDS011;59999;51.676;22.650;2023-06-10T11:48:54;12.43;;;7.93;;
72125;SDS011;59999;51.676;22.650;2023-06-10T11:51:21;11.27;;;7.45;;
72125;SDS011;59999;51.676;22.650;2023-06-10T11:53:48;10.40;;;7.28;;
72125;SDS011;59999;51.676;22.650;2023-06-10T11:56:20;9.90;;;6.35;;
72125;SDS011;59999;51.676;22.650;2023-06-10T11:58:51;10.52;;;6.88;;
72125;SDS011;59999;51.676;22.650;2023-06-10T12:01:23;11.60;;;7.00;;
72125;SDS011;59999;51.676;22.650;2023-06-10T12:04:00;13.55;;;7.13;;
72125;SDS011;59999;51.676;22.650;2023-06-10T12:09:14;10.25;;;7.22;;
72125;SDS011;59999;51.676;22.650;2023-06-10T12:11:44;10.73;;;7.60;;
72125;SDS011;59999;51.676;22.650;2023-06-10T12:14:11;14.20;;;7.20;;
72125;SDS011;59999;51.676;22.650;2023-06-10T12:16:37;11.18;;;7.10;;
72125;SDS011;59999;51.676;22.650;2023-06-10T12:19:04;13.02;;;8.25;;
72125;SDS011;59999;51.676;22.650;2023-06-10T12:21:31;12.18;;;8.65;;
72125;SDS011;59999;51.676;22.650;2023-06-10T12:23:59;12.95;;;8.35;;
72125;SDS011;59999;51.676;22.650;2023-06-10T12:26:41;13.47;;;7.80;;
72125;SDS011;59999;51.676;22.650;2023-06-10T12:29:21;10.95;;;7.95;;
72125;SDS011;59999;51.676;22.650;2023-06-10T12:34:28;11.45;;;7.85;;
72125;SDS011;59999;51.676;22.650;2023-06-10T12:37:10;10.95;;;7.18;;
72125;SDS011;59999;51.676;22.650;2023-06-10T12:39:40;11.10;;;7.63;;
72125;SDS011;59999;51.676;22.650;2023-06-10T12:42:12;11.50;;;7.70;;
72125;SDS011;59999;51.676;22.650;2023-06-10T12:44:39;10.43;;;7.40;;
72125;SDS011;59999;51.676;22.650;2023-06-10T12:47:10;14.43;;;8.23;;
72125;SDS011;59999;51.676;22.650;2023-06-10T12:49:38;14.27;;;8.63;;
72125;SDS011;59999;51.676;22.650;2023-06-10T12:52:04;12.97;;;8.13;;
72125;SDS011;59999;51.676;22.650;2023-06-10T12:54:31;11.57;;;8.25;;
72125;SDS011;59999;51.676;22.650;2023-06-10T12:56:57;11.75;;;8.38;;
72125;SDS011;59999;51.676;22.650;2023-06-10T12:59:24;14.82;;;8.57;;
72125;SDS011;59999;51.676;22.650;2023-06-10T13:01:51;12.40;;;7.80;;
72125;SDS011;59999;51.676;22.650;2023-06-10T13:04:17;13.18;;;8.68;;
72125;SDS011;59999;51.676;22.650;2023-06-10T13:06:44;13.20;;;8.80;;
72125;SDS011;59999;51.676;22.650;2023-06-10T13:09:10;12.57;;;8.15;;
72125;SDS011;59999;51.676;22.650;2023-06-10T13:11:36;13.80;;;8.80;;
72125;SDS011;59999;51.676;22.650;2023-06-10T13:14:02;13.60;;;8.68;;
72125;SDS011;59999;51.676;22.650;2023-06-10T13:16:32;13.00;;;8.63;;
72125;SDS011;59999;51.676;22.650;2023-06-10T13:18:59;12.68;;;8.02;;
72125;SDS011;59999;51.676;22.650;2023-06-10T13:21:26;16.23;;;8.70;;
72125;SDS011;59999;51.676;22.650;2023-06-10T13:23:52;13.73;;;8.93;;
72125;SDS011;59999;51.676;22.650;2023-06-10T13:26:17;12.77;;;8.48;;
72125;SDS011;59999;51.676;22.650;2023-06-10T13:28:44;15.93;;;9.13;;
72125;SDS011;59999;51.676;22.650;2023-06-10T13:31:10;11.60;;;8.70;;
72125;SDS011;59999;51.676;22.650;2023-06-10T13:33:36;11.50;;;8.10;;
72125;SDS011;59999;51.676;22.650;2023-06-10T13:36:03;12.65;;;8.88;;
72125;SDS011;59999;51.676;22.650;2023-06-10T13:38:29;13.90;;;8.68;;
72125;SDS011;59999;51.676;22.650;2023-06-10T13:40:55;14.02;;;8.18;;
72125;SDS011;59999;51.676;22.650;2023-06-10T13:43:21;12.73;;;8.93;;
72125;SDS011;59999;51.676;22.650;2023-06-10T13:45:47;11.38;;;8.13;;
72125;SDS011;59999;51.676;22.650;2023-06-10T13:48:13;11.10;;;7.75;;
72125;SDS011;59999;51.676;22.650;2023-06-10T13:50:39;11.82;;;7.88;;
72125;SDS011;59999;51.676;22.650;2023-06-10T13:53:05;14.60;;;8.30;;
72125;SDS011;59999;51.676;22.650;2023-06-10T13:55:31;12.18;;;8.52;;
72125;SDS011;59999;51.676;22.650;2023-06-10T13:57:57;12.48;;;7.85;;
72125;SDS011;59999;51.676;22.650;2023-06-10T14:00:23;13.53;;;8.73;;
72125;SDS011;59999;51.676;22.650;2023-06-10T14:02:49;12.55;;;8.15;;
72125;SDS011;59999;51.676;22.650;2023-06-10T14:05:15;12.70;;;8.68;;
72125;SDS011;59999;51.676;22.650;2023-06-10T14:07:41;11.07;;;7.82;;
72125;SDS011;59999;51.676;22.650;2023-06-10T14:10:07;12.13;;;8.52;;
72125;SDS011;59999;51.676;22.650;2023-06-10T14:12:35;11.17;;;7.80;;
72125;SDS011;59999;51.676;22.650;2023-06-10T14:15:01;12.07;;;8.38;;
72125;SDS011;59999;51.676;22.650;2023-06-10T14:17:27;11.60;;;8.07;;
72125;SDS011;59999;51.676;22.650;2023-06-10T14:19:53;12.17;;;8.57;;
72125;SDS011;59999;51.676;22.650;2023-06-10T14:22:19;12.27;;;9.15;;
72125;SDS011;59999;51.676;22.650;2023-06-10T14:24:45;11.40;;;7.68;;
72125;SDS011;59999;51.676;22.650;2023-06-10T14:27:12;11.48;;;8.05;;
72125;SDS011;59999;51.676;22.650;2023-06-10T14:29:38;13.73;;;9.40;;
72125;SDS011;59999;51.676;22.650;2023-06-10T14:32:05;13.68;;;8.50;;
72125;SDS011;59999;51.676;22.650;2023-06-10T14:34:31;12.15;;;8.00;;
72125;SDS011;59999;51.676;22.650;2023-06-10T14:36:59;11.57;;;8.20;;
72125;SDS011;59999;51.676;22.650;2023-06-10T14:39:26;13.20;;;8.70;;
72125;SDS011;59999;51.676;22.650;2023-06-10T14:41:52;12.25;;;8.90;;
72125;SDS011;59999;51.676;22.650;2023-06-10T14:44:21;12.75;;;7.95;;
72125;SDS011;59999;51.676;22.650;2023-06-10T14:46:47;12.38;;;8.60;;
72125;SDS011;59999;51.676;22.650;2023-06-10T14:49:13;14.17;;;8.57;;
72125;SDS011;59999;51.676;22.650;2023-06-10T14:51:39;10.45;;;8.10;;
72125;SDS011;59999;51.676;22.650;2023-06-10T14:54:05;13.30;;;8.60;;
72125;SDS011;59999;51.676;22.650;2023-06-10T14:56:31;11.60;;;8.52;;
72125;SDS011;59999;51.676;22.650;2023-06-10T14:58:57;11.73;;;8.33;;